sensor_id;sensor_type;location;lat;lon;timestamp;P1;durP1;ratioP1;P2;durP2;ratioP2
17864;SDS011;9058;52.018;4.202;2024-03-25T00:01:02;29.25;;;17.23;;
17864;SDS011;9058;52.018;4.202;2024-03-25T00:03:27;18.52;;;16.33;;
17864;SDS011;9058;52.018;4.202;2024-03-25T00:05:52;21.90;;;17.02;;
17864;SDS011;9058;52.018;4.202;2024-03-25T00:08:17;20.70;;;17.98;;
17864;SDS011;9058;52.018;4.202;2024-03-25T00:10:43;19.60;;;17.67;;
17864;SDS011;9058;52.018;4.202;2024-03-25T00:13:08;20.70;;;18.80;;
17864;SDS011;9058;52.018;4.202;2024-03-25T00:15:35;20.63;;;17.30;;
17864;SDS011;9058;52.018;4.202;2024-03-25T00:18:02;27.58;;;18.83;;
17864;SDS011;9058;52.018;4.202;2024-03-25T00:20:27;18.67;;;16.88;;
17864;SDS011;9058;52.018;4.202;2024-03-25T00:22:53;19.38;;;16.85;;
17864;SDS011;9058;52.018;4.202;2024-03-25T00:25:18;21.92;;;16.02;;
17864;SDS011;9058;52.018;4.202;2024-03-25T00:27:43;21.13;;;17.45;;
17864;SDS011;9058;52.018;4.202;2024-03-25T00:30:09;18.77;;;15.60;;
17864;SDS011;9058;52.018;4.202;2024-03-25T00:32:34;18.35;;;15.55;;
17864;SDS011;9058;52.018;4.202;2024-03-25T00:35:00;25.60;;;14.85;;
17864;SDS011;9058;52.018;4.202;2024-03-25T00:37:25;21.52;;;15.55;;
17864;SDS011;9058;52.018;4.202;2024-03-25T00:39:50;27.70;;;16.40;;
17864;SDS011;9058;52.018;4.202;2024-03-25T00:42:16;24.63;;;16.33;;
17864;SDS011;9058;52.018;4.202;2024-03-25T00:44:41;26.25;;;15.40;;
17864;SDS011;9058;52.018;4.202;2024-03-25T00:47:06;22.38;;;15.52;;
17864;SDS011;9058;52.018;4.202;2024-03-25T00:49:31;19.92;;;15.00;;
17864;SDS011;9058;52.018;4.202;2024-03-25T00:51:57;17.88;;;14.70;;
17864;SDS011;9058;52.018;4.202;2024-03-25T00:54:22;19.75;;;15.45;;
17864;SDS011;9058;52.018;4.202;2024-03-25T00:56:48;19.58;;;14.95;;
17864;SDS011;9058;52.018;4.202;2024-03-25T00:59:14;18.60;;;15.15;;
17864;SDS011;9058;52.018;4.202;2024-03-25T01:01:39;22.42;;;13.77;;
17864;SDS011;9058;52.018;4.202;2024-03-25T01:04:05;19.60;;;12.98;;
17864;SDS011;9058;52.018;4.202;2024-03-25T01:06:30;17.77;;;13.40;;
17864;SDS011;9058;52.018;4.202;2024-03-25T01:08:55;25.15;;;13.57;;
17864;SDS011;9058;52.018;4.202;2024-03-25T01:11:20;20.98;;;12.23;;
17864;SDS011;9058;52.018;4.202;2024-03-25T01:13:46;14.90;;;13.35;;
17864;SDS011;9058;52.018;4.202;2024-03-25T01:16:12;20.02;;;13.55;;
17864;SDS011;9058;52.018;4.202;2024-03-25T01:18:37;16.00;;;14.18;;
17864;SDS011;9058;52.018;4.202;2024-03-25T01:21:03;16.90;;;13.70;;
17864;SDS011;9058;52.018;4.202;2024-03-25T01:23:29;25.27;;;13.77;;
17864;SDS011;9058;52.018;4.202;2024-03-25T01:25:54;21.63;;;14.93;;
17864;SDS011;9058;52.018;4.202;2024-03-25T01:28:20;20.85;;;15.95;;
17864;SDS011;9058;52.018;4.202;2024-03-25T01:30:45;23.50;;;15.45;;
17864;SDS011;9058;52.018;4.202;2024-03-25T01:33:11;17.52;;;14.57;;
17864;SDS011;9058;52.018;4.202;2024-03-25T01:35:36;17.02;;;13.88;;
17864;SDS011;9058;52.018;4.202;2024-03-25T01:38:02;18.85;;;15.07;;
17864;SDS011;9058;52.018;4.202;2024-03-25T01:40:28;16.85;;;15.30;;
17864;SDS011;9058;52.018;4.202;2024-03-25T01:42:57;21.33;;;15.43;;
17864;SDS011;9058;52.018;4.202;2024-03-25T01:45:23;17.45;;;13.85;;
17864;SDS011;9058;52.018;4.202;2024-03-25T01:47:48;19.67;;;13.07;;
17864;SDS011;9058;52.018;4.202;2024-03-25T01:50:14;22.80;;;13.70;;
17864;SDS011;9058;52.018;4.202;2024-03-25T01:52:39;15.15;;;13.15;;
17864;SDS011;9058;52.018;4.202;2024-03-25T01:55:06;24.10;;;14.15;;
17864;SDS011;9058;52.018;4.202;2024-03-25T01:57:32;18.55;;;13.80;;
17864;SDS011;9058;52.018;4.202;2024-03-25T01:59:57;15.98;;;13.27;;
17864;SDS011;9058;52.018;4.202;2024-03-25T02:02:23;18.30;;;13.65;;
17864;SDS011;9058;52.018;4.202;2024-03-25T02:04:48;23.25;;;15.07;;
17864;SDS011;9058;52.018;4.202;2024-03-25T02:07:14;21.42;;;16.30;;
17864;SDS011;9058;52.018;4.202;2024-03-25T02:09:39;21.02;;;16.80;;
17864;SDS011;9058;52.018;4.202;2024-03-25T02:12:05;20.35;;;16.35;;
17864;SDS011;9058;52.018;4.202;2024-03-25T02:14:31;19.67;;;15.48;;
17864;SDS011;9058;52.018;4.202;2024-03-25T02:16:56;17.75;;;14.02;;
17864;SDS011;9058;52.018;4.202;2024-03-25T02:19:22;24.52;;;18.02;;
17864;SDS011;9058;52.018;4.202;2024-03-25T02:21:49;17.42;;;16.00;;
17864;SDS011;9058;52.018;4.202;2024-03-25T02:24:14;25.10;;;14.23;;
17864;SDS011;9058;52.018;4.202;2024-03-25T02:26:40;17.73;;;15.85;;
17864;SDS011;9058;52.018;4.202;2024-03-25T02:29:08;18.45;;;15.35;;
17864;SDS011;9058;52.018;4.202;2024-03-25T02:31:34;16.20;;;14.68;;
17864;SDS011;9058;52.018;4.202;2024-03-25T02:33:59;19.23;;;17.38;;
17864;SDS011;9058;52.018;4.202;2024-03-25T02:36:24;23.27;;;15.80;;
17864;SDS011;9058;52.018;4.202;2024-03-25T02:38:49;19.42;;;15.60;;
17864;SDS011;9058;52.018;4.202;2024-03-25T02:41:15;22.00;;;17.05;;
17864;SDS011;9058;52.018;4.202;2024-03-25T02:43:40;21.95;;;17.65;;
17864;SDS011;9058;52.018;4.202;2024-03-25T02:46:05;24.27;;;19.00;;
17864;SDS011;9058;52.018;4.202;2024-03-25T02:48:31;22.17;;;17.63;;
17864;SDS011;9058;52.018;4.202;2024-03-25T02:50:56;22.15;;;17.13;;
17864;SDS011;9058;52.018;4.202;2024-03-25T02:53:21;22.70;;;15.85;;
17864;SDS011;9058;52.018;4.202;2024-03-25T02:55:47;18.30;;;15.45;;
17864;SDS011;9058;52.018;4.202;2024-03-25T02:58:13;17.52;;;15.90;;
17864;SDS011;9058;52.018;4.202;2024-03-25T03:00:38;22.27;;;16.63;;
17864;SDS011;9058;52.018;4.202;2024-03-25T03:03:03;23.40;;;20.92;;
17864;SDS011;9058;52.018;4.202;2024-03-25T03:05:29;21.33;;;16.17;;
17864;SDS011;9058;52.018;4.202;2024-03-25T03:07:54;24.33;;;18.42;;
17864;SDS011;9058;52.018;4.202;2024-03-25T03:10:19;19.73;;;16.05;;
17864;SDS011;9058;52.018;4.202;2024-03-25T03:12:45;22.08;;;15.02;;
17864;SDS011;9058;52.018;4.202;2024-03-25T03:15:10;24.42;;;18.73;;
17864;SDS011;9058;52.018;4.202;2024-03-25T03:17:36;24.20;;;16.65;;
17864;SDS011;9058;52.018;4.202;2024-03-25T03:20:01;18.10;;;16.13;;
17864;SDS011;9058;52.018;4.202;2024-03-25T03:22:26;23.27;;;16.90;;
17864;SDS011;9058;52.018;4.202;2024-03-25T03:24:52;21.08;;;17.23;;
17864;SDS011;9058;52.018;4.202;2024-03-25T03:27:18;27.65;;;18.05;;
17864;SDS011;9058;52.018;4.202;2024-03-25T03:29:43;22.13;;;16.67;;
17864;SDS011;9058;52.018;4.202;2024-03-25T03:32:09;22.95;;;17.17;;
17864;SDS011;9058;52.018;4.202;2024-03-25T03:34:34;20.40;;;16.67;;
17864;SDS011;9058;52.018;4.202;2024-03-25T03:36:59;25.02;;;17.08;;
17864;SDS011;9058;52.018;4.202;2024-03-25T03:39:25;21.92;;;16.95;;
17864;SDS011;9058;52.018;4.202;2024-03-25T03:41:50;26.17;;;15.35;;
17864;SDS011;9058;52.018;4.202;2024-03-25T03:44:15;22.48;;;16.00;;
17864;SDS011;9058;52.018;4.202;2024-03-25T03:46:41;18.90;;;15.75;;
17864;SDS011;9058;52.018;4.202;2024-03-25T03:49:06;19.27;;;16.80;;
17864;SDS011;9058;52.018;4.202;2024-03-25T03:51:31;25.23;;;17.52;;
17864;SDS011;9058;52.018;4.202;2024-03-25T03:53:56;29.65;;;16.80;;
17864;SDS011;9058;52.018;4.202;2024-03-25T03:56:22;17.67;;;15.63;;
17864;SDS011;9058;52.018;4.202;2024-03-25T03:58:47;23.70;;;15.40;;
17864;SDS011;9058;52.018;4.202;2024-03-25T04:01:14;24.45;;;16.92;;
17864;SDS011;9058;52.018;4.202;2024-03-25T04:03:40;23.63;;;17.23;;
17864;SDS011;9058;52.018;4.202;2024-03-25T04:06:12;27.02;;;16.40;;
17864;SDS011;9058;52.018;4.202;2024-03-25T04:08:39;23.58;;;16.23;;
17864;SDS011;9058;52.018;4.202;2024-03-25T04:11:04;21.80;;;15.73;;
17864;SDS011;9058;52.018;4.202;2024-03-25T04:13:31;24.55;;;17.52;;
17864;SDS011;9058;52.018;4.202;2024-03-25T04:15:59;25.83;;;15.55;;
17864;SDS011;9058;52.018;4.202;2024-03-25T04:18:25;21.77;;;16.02;;
17864;SDS011;9058;52.018;4.202;2024-03-25T04:20:51;18.50;;;16.52;;
17864;SDS011;9058;52.018;4.202;2024-03-25T04:23:17;20.03;;;16.10;;
17864;SDS011;9058;52.018;4.202;2024-03-25T04:25:42;22.87;;;17.37;;
17864;SDS011;9058;52.018;4.202;2024-03-25T04:28:07;21.83;;;18.33;;
17864;SDS011;9058;52.018;4.202;2024-03-25T04:30:33;19.53;;;17.23;;
17864;SDS011;9058;52.018;4.202;2024-03-25T04:32:58;22.93;;;15.83;;
17864;SDS011;9058;52.018;4.202;2024-03-25T04:35:24;21.00;;;16.23;;
17864;SDS011;9058;52.018;4.202;2024-03-25T04:37:49;21.20;;;14.33;;
17864;SDS011;9058;52.018;4.202;2024-03-25T04:40:15;27.30;;;15.80;;
17864;SDS011;9058;52.018;4.202;2024-03-25T04:42:43;25.42;;;14.75;;
17864;SDS011;9058;52.018;4.202;2024-03-25T04:45:09;20.93;;;13.70;;
17864;SDS011;9058;52.018;4.202;2024-03-25T04:47:34;23.97;;;13.80;;
17864;SDS011;9058;52.018;4.202;2024-03-25T04:49:59;20.37;;;16.07;;
17864;SDS011;9058;52.018;4.202;2024-03-25T04:52:25;19.27;;;14.67;;
17864;SDS011;9058;52.018;4.202;2024-03-25T04:54:50;20.23;;;15.33;;
17864;SDS011;9058;52.018;4.202;2024-03-25T04:57:16;21.00;;;14.23;;
17864;SDS011;9058;52.018;4.202;2024-03-25T04:59:41;19.67;;;13.53;;
17864;SDS011;9058;52.018;4.202;2024-03-25T05:02:06;19.37;;;14.10;;
17864;SDS011;9058;52.018;4.202;2024-03-25T05:04:32;18.17;;;12.27;;
17864;SDS011;9058;52.018;4.202;2024-03-25T05:06:57;21.27;;;13.90;;
17864;SDS011;9058;52.018;4.202;2024-03-25T05:09:23;20.77;;;12.73;;
17864;SDS011;9058;52.018;4.202;2024-03-25T05:11:48;20.83;;;11.37;;
17864;SDS011;9058;52.018;4.202;2024-03-25T05:14:13;19.53;;;10.73;;
17864;SDS011;9058;52.018;4.202;2024-03-25T05:16:38;21.53;;;11.93;;
17864;SDS011;9058;52.018;4.202;2024-03-25T05:19:04;16.63;;;11.73;;
17864;SDS011;9058;52.018;4.202;2024-03-25T05:21:30;18.40;;;9.80;;
17864;SDS011;9058;52.018;4.202;2024-03-25T05:23:57;23.83;;;11.23;;
17864;SDS011;9058;52.018;4.202;2024-03-25T05:26:23;19.63;;;10.77;;
17864;SDS011;9058;52.018;4.202;2024-03-25T05:28:52;18.43;;;10.00;;
17864;SDS011;9058;52.018;4.202;2024-03-25T05:31:17;29.17;;;10.80;;
17864;SDS011;9058;52.018;4.202;2024-03-25T05:33:43;15.32;;;9.13;;
17864;SDS011;9058;52.018;4.202;2024-03-25T05:36:09;25.07;;;11.07;;
17864;SDS011;9058;52.018;4.202;2024-03-25T05:38:35;21.02;;;10.20;;
17864;SDS011;9058;52.018;4.202;2024-03-25T05:41:00;19.10;;;8.48;;
17864;SDS011;9058;52.018;4.202;2024-03-25T05:43:25;17.90;;;8.50;;
17864;SDS011;9058;52.018;4.202;2024-03-25T05:45:51;17.48;;;9.02;;
17864;SDS011;9058;52.018;4.202;2024-03-25T05:48:16;21.93;;;9.53;;
17864;SDS011;9058;52.018;4.202;2024-03-25T05:50:41;18.33;;;8.87;;
17864;SDS011;9058;52.018;4.202;2024-03-25T05:53:07;17.60;;;8.60;;
17864;SDS011;9058;52.018;4.202;2024-03-25T05:55:33;25.08;;;9.48;;
17864;SDS011;9058;52.018;4.202;2024-03-25T05:57:58;17.08;;;10.40;;
17864;SDS011;9058;52.018;4.202;2024-03-25T06:00:24;20.38;;;9.05;;
17864;SDS011;9058;52.018;4.202;2024-03-25T06:02:49;23.08;;;10.75;;
17864;SDS011;9058;52.018;4.202;2024-03-25T06:05:14;26.00;;;9.60;;
17864;SDS011;9058;52.018;4.202;2024-03-25T06:07:40;26.08;;;10.13;;
17864;SDS011;9058;52.018;4.202;2024-03-25T06:10:05;18.42;;;9.57;;
17864;SDS011;9058;52.018;4.202;2024-03-25T06:12:30;28.05;;;10.50;;
17864;SDS011;9058;52.018;4.202;2024-03-25T06:14:56;27.35;;;11.07;;
17864;SDS011;9058;52.018;4.202;2024-03-25T06:17:21;22.23;;;11.13;;
17864;SDS011;9058;52.018;4.202;2024-03-25T06:19:46;24.10;;;9.90;;
17864;SDS011;9058;52.018;4.202;2024-03-25T06:22:12;24.00;;;10.82;;
17864;SDS011;9058;52.018;4.202;2024-03-25T06:24:37;20.80;;;12.80;;
17864;SDS011;9058;52.018;4.202;2024-03-25T06:27:02;24.02;;;11.18;;
17864;SDS011;9058;52.018;4.202;2024-03-25T06:29:28;23.33;;;11.30;;
17864;SDS011;9058;52.018;4.202;2024-03-25T06:31:53;21.58;;;13.13;;
17864;SDS011;9058;52.018;4.202;2024-03-25T06:34:37;29.92;;;14.98;;
17864;SDS011;9058;52.018;4.202;2024-03-25T06:37:03;23.42;;;15.32;;
17864;SDS011;9058;52.018;4.202;2024-03-25T06:39:29;32.50;;;15.18;;
17864;SDS011;9058;52.018;4.202;2024-03-25T06:41:54;23.60;;;16.38;;
17864;SDS011;9058;52.018;4.202;2024-03-25T06:44:20;28.65;;;16.38;;
17864;SDS011;9058;52.018;4.202;2024-03-25T06:46:45;26.70;;;15.60;;
17864;SDS011;9058;52.018;4.202;2024-03-25T06:49:10;35.83;;;19.05;;
17864;SDS011;9058;52.018;4.202;2024-03-25T06:51:35;23.63;;;17.73;;
17864;SDS011;9058;52.018;4.202;2024-03-25T06:54:01;24.20;;;16.90;;
17864;SDS011;9058;52.018;4.202;2024-03-25T06:56:26;28.25;;;18.40;;
17864;SDS011;9058;52.018;4.202;2024-03-25T06:58:51;29.45;;;19.85;;
17864;SDS011;9058;52.018;4.202;2024-03-25T07:01:17;26.10;;;19.80;;
17864;SDS011;9058;52.018;4.202;2024-03-25T07:03:42;36.97;;;20.50;;
17864;SDS011;9058;52.018;4.202;2024-03-25T07:06:08;26.27;;;19.13;;
17864;SDS011;9058;52.018;4.202;2024-03-25T07:08:33;32.25;;;21.48;;
17864;SDS011;9058;52.018;4.202;2024-03-25T07:10:59;24.30;;;20.90;;
17864;SDS011;9058;52.018;4.202;2024-03-25T07:13:24;30.00;;;22.92;;
17864;SDS011;9058;52.018;4.202;2024-03-25T07:15:49;27.67;;;22.27;;
17864;SDS011;9058;52.018;4.202;2024-03-25T07:18:15;23.67;;;20.95;;
17864;SDS011;9058;52.018;4.202;2024-03-25T07:20:41;23.83;;;19.23;;
17864;SDS011;9058;52.018;4.202;2024-03-25T07:23:06;24.30;;;20.08;;
17864;SDS011;9058;52.018;4.202;2024-03-25T07:25:31;22.35;;;20.05;;
17864;SDS011;9058;52.018;4.202;2024-03-25T07:27:57;24.50;;;20.33;;
17864;SDS011;9058;52.018;4.202;2024-03-25T07:30:22;24.63;;;20.17;;
17864;SDS011;9058;52.018;4.202;2024-03-25T07:32:50;22.13;;;19.85;;
17864;SDS011;9058;52.018;4.202;2024-03-25T07:35:15;22.73;;;15.75;;
17864;SDS011;9058;52.018;4.202;2024-03-25T07:37:42;17.02;;;15.32;;
17864;SDS011;9058;52.018;4.202;2024-03-25T07:40:07;20.35;;;18.20;;
17864;SDS011;9058;52.018;4.202;2024-03-25T07:42:34;19.88;;;16.13;;
17864;SDS011;9058;52.018;4.202;2024-03-25T07:44:59;18.13;;;15.15;;
17864;SDS011;9058;52.018;4.202;2024-03-25T07:47:25;19.05;;;16.17;;
17864;SDS011;9058;52.018;4.202;2024-03-25T07:49:51;16.20;;;14.15;;
17864;SDS011;9058;52.018;4.202;2024-03-25T07:52:16;16.23;;;13.93;;
17864;SDS011;9058;52.018;4.202;2024-03-25T07:54:41;22.88;;;15.57;;
17864;SDS011;9058;52.018;4.202;2024-03-25T07:57:08;16.98;;;15.00;;
17864;SDS011;9058;52.018;4.202;2024-03-25T07:59:34;16.60;;;13.70;;
17864;SDS011;9058;52.018;4.202;2024-03-25T08:02:00;16.38;;;13.45;;
17864;SDS011;9058;52.018;4.202;2024-03-25T08:04:25;14.88;;;13.45;;
17864;SDS011;9058;52.018;4.202;2024-03-25T08:06:50;14.27;;;11.98;;
17864;SDS011;9058;52.018;4.202;2024-03-25T08:09:15;14.65;;;11.55;;
17864;SDS011;9058;52.018;4.202;2024-03-25T08:11:45;18.75;;;11.95;;
17864;SDS011;9058;52.018;4.202;2024-03-25T08:14:10;13.25;;;10.70;;
17864;SDS011;9058;52.018;4.202;2024-03-25T08:16:35;13.75;;;12.30;;
17864;SDS011;9058;52.018;4.202;2024-03-25T08:19:01;14.32;;;11.45;;
17864;SDS011;9058;52.018;4.202;2024-03-25T08:21:26;12.40;;;10.90;;
17864;SDS011;9058;52.018;4.202;2024-03-25T08:23:51;12.27;;;9.73;;
17864;SDS011;9058;52.018;4.202;2024-03-25T08:26:17;13.90;;;10.68;;
17864;SDS011;9058;52.018;4.202;2024-03-25T08:28:42;16.67;;;11.07;;
17864;SDS011;9058;52.018;4.202;2024-03-25T08:31:07;11.38;;;10.00;;
17864;SDS011;9058;52.018;4.202;2024-03-25T08:33:32;15.70;;;11.57;;
17864;SDS011;9058;52.018;4.202;2024-03-25T08:35:58;15.80;;;11.60;;
17864;SDS011;9058;52.018;4.202;2024-03-25T08:38:23;15.82;;;11.50;;
17864;SDS011;9058;52.018;4.202;2024-03-25T08:40:48;16.02;;;12.25;;
17864;SDS011;9058;52.018;4.202;2024-03-25T08:43:15;16.20;;;11.18;;
17864;SDS011;9058;52.018;4.202;2024-03-25T08:45:40;19.42;;;12.10;;
17864;SDS011;9058;52.018;4.202;2024-03-25T08:48:06;17.30;;;12.32;;
17864;SDS011;9058;52.018;4.202;2024-03-25T08:50:31;16.75;;;13.38;;
17864;SDS011;9058;52.018;4.202;2024-03-25T08:52:56;19.55;;;13.90;;
17864;SDS011;9058;52.018;4.202;2024-03-25T08:55:22;17.58;;;14.93;;
17864;SDS011;9058;52.018;4.202;2024-03-25T08:57:47;23.20;;;15.95;;
17864;SDS011;9058;52.018;4.202;2024-03-25T09:00:13;21.27;;;16.17;;
17864;SDS011;9058;52.018;4.202;2024-03-25T09:02:39;19.77;;;16.13;;
17864;SDS011;9058;52.018;4.202;2024-03-25T09:05:04;18.83;;;15.95;;
17864;SDS011;9058;52.018;4.202;2024-03-25T09:07:32;20.48;;;15.40;;
17864;SDS011;9058;52.018;4.202;2024-03-25T09:09:57;18.92;;;16.65;;
17864;SDS011;9058;52.018;4.202;2024-03-25T09:12:42;23.55;;;18.15;;
17864;SDS011;9058;52.018;4.202;2024-03-25T09:15:08;18.15;;;16.30;;
17864;SDS011;9058;52.018;4.202;2024-03-25T09:17:34;23.80;;;15.68;;
17864;SDS011;9058;52.018;4.202;2024-03-25T09:20:01;25.20;;;16.05;;
17864;SDS011;9058;52.018;4.202;2024-03-25T09:22:42;25.30;;;16.85;;
17864;SDS011;9058;52.018;4.202;2024-03-25T09:25:10;19.75;;;13.57;;
17864;SDS011;9058;52.018;4.202;2024-03-25T09:27:35;18.75;;;14.75;;
17864;SDS011;9058;52.018;4.202;2024-03-25T09:30:01;19.23;;;14.35;;
17864;SDS011;9058;52.018;4.202;2024-03-25T09:32:27;15.57;;;12.30;;
17864;SDS011;9058;52.018;4.202;2024-03-25T09:34:53;13.70;;;12.30;;
17864;SDS011;9058;52.018;4.202;2024-03-25T09:37:18;17.38;;;13.27;;
17864;SDS011;9058;52.018;4.202;2024-03-25T09:39:43;17.65;;;12.38;;
17864;SDS011;9058;52.018;4.202;2024-03-25T09:42:09;17.83;;;14.57;;
17864;SDS011;9058;52.018;4.202;2024-03-25T09:44:38;14.57;;;13.25;;
17864;SDS011;9058;52.018;4.202;2024-03-25T09:47:03;18.05;;;14.70;;
17864;SDS011;9058;52.018;4.202;2024-03-25T09:49:29;14.93;;;13.40;;
17864;SDS011;9058;52.018;4.202;2024-03-25T09:51:55;16.10;;;12.07;;
17864;SDS011;9058;52.018;4.202;2024-03-25T09:54:20;14.00;;;12.35;;
17864;SDS011;9058;52.018;4.202;2024-03-25T09:56:45;13.60;;;11.52;;
17864;SDS011;9058;52.018;4.202;2024-03-25T09:59:11;12.57;;;11.30;;
17864;SDS011;9058;52.018;4.202;2024-03-25T10:01:38;13.77;;;10.95;;
17864;SDS011;9058;52.018;4.202;2024-03-25T10:04:04;12.63;;;11.15;;
17864;SDS011;9058;52.018;4.202;2024-03-25T10:06:29;11.60;;;10.40;;
17864;SDS011;9058;52.018;4.202;2024-03-25T10:08:54;11.98;;;8.98;;
17864;SDS011;9058;52.018;4.202;2024-03-25T10:11:22;13.57;;;9.48;;
17864;SDS011;9058;52.018;4.202;2024-03-25T10:13:47;11.32;;;9.77;;
17864;SDS011;9058;52.018;4.202;2024-03-25T10:16:13;13.82;;;11.15;;
17864;SDS011;9058;52.018;4.202;2024-03-25T10:18:38;11.10;;;8.75;;
17864;SDS011;9058;52.018;4.202;2024-03-25T10:21:04;12.95;;;10.55;;
17864;SDS011;9058;52.018;4.202;2024-03-25T10:23:29;11.55;;;10.30;;
17864;SDS011;9058;52.018;4.202;2024-03-25T10:25:54;11.30;;;9.77;;
17864;SDS011;9058;52.018;4.202;2024-03-25T10:28:20;11.32;;;9.15;;
17864;SDS011;9058;52.018;4.202;2024-03-25T10:30:46;9.80;;;8.20;;
17864;SDS011;9058;52.018;4.202;2024-03-25T10:33:12;11.57;;;8.05;;
17864;SDS011;9058;52.018;4.202;2024-03-25T10:35:38;13.95;;;7.68;;
17864;SDS011;9058;52.018;4.202;2024-03-25T10:38:04;7.85;;;7.05;;
17864;SDS011;9058;52.018;4.202;2024-03-25T10:40:30;9.05;;;6.38;;
17864;SDS011;9058;52.018;4.202;2024-03-25T10:43:02;9.30;;;6.70;;
17864;SDS011;9058;52.018;4.202;2024-03-25T10:45:29;8.65;;;5.93;;
17864;SDS011;9058;52.018;4.202;2024-03-25T10:47:55;7.50;;;5.63;;
17864;SDS011;9058;52.018;4.202;2024-03-25T10:50:22;10.45;;;6.13;;
17864;SDS011;9058;52.018;4.202;2024-03-25T10:52:51;9.27;;;6.00;;
17864;SDS011;9058;52.018;4.202;2024-03-25T10:55:18;7.45;;;6.20;;
17864;SDS011;9058;52.018;4.202;2024-03-25T10:57:44;10.93;;;6.38;;
17864;SDS011;9058;52.018;4.202;2024-03-25T11:00:10;6.43;;;5.75;;
17864;SDS011;9058;52.018;4.202;2024-03-25T11:02:39;11.07;;;6.82;;
17864;SDS011;9058;52.018;4.202;2024-03-25T11:05:05;10.05;;;5.53;;
17864;SDS011;9058;52.018;4.202;2024-03-25T11:07:31;9.98;;;6.70;;
17864;SDS011;9058;52.018;4.202;2024-03-25T11:10:03;10.45;;;6.15;;
17864;SDS011;9058;52.018;4.202;2024-03-25T11:12:32;9.70;;;7.15;;
17864;SDS011;9058;52.018;4.202;2024-03-25T11:14:57;12.20;;;8.43;;
17864;SDS011;9058;52.018;4.202;2024-03-25T11:17:22;9.05;;;6.78;;
17864;SDS011;9058;52.018;4.202;2024-03-25T11:19:48;10.55;;;7.22;;
17864;SDS011;9058;52.018;4.202;2024-03-25T11:22:13;9.57;;;6.72;;
17864;SDS011;9058;52.018;4.202;2024-03-25T11:24:43;10.30;;;7.00;;
17864;SDS011;9058;52.018;4.202;2024-03-25T11:27:09;10.15;;;6.00;;
17864;SDS011;9058;52.018;4.202;2024-03-25T11:29:35;5.07;;;3.85;;
17864;SDS011;9058;52.018;4.202;2024-03-25T11:32:02;8.63;;;4.70;;
17864;SDS011;9058;52.018;4.202;2024-03-25T11:34:28;9.00;;;5.28;;
17864;SDS011;9058;52.018;4.202;2024-03-25T11:36:54;9.65;;;4.63;;
17864;SDS011;9058;52.018;4.202;2024-03-25T11:39:21;8.60;;;4.30;;
17864;SDS011;9058;52.018;4.202;2024-03-25T11:41:47;7.22;;;4.65;;
17864;SDS011;9058;52.018;4.202;2024-03-25T11:44:12;11.25;;;4.72;;
17864;SDS011;9058;52.018;4.202;2024-03-25T11:46:38;8.25;;;4.70;;
17864;SDS011;9058;52.018;4.202;2024-03-25T11:49:13;6.97;;;4.93;;
17864;SDS011;9058;52.018;4.202;2024-03-25T11:51:39;10.93;;;6.03;;
17864;SDS011;9058;52.018;4.202;2024-03-25T11:54:06;8.95;;;6.00;;
17864;SDS011;9058;52.018;4.202;2024-03-25T11:56:31;9.50;;;5.72;;
17864;SDS011;9058;52.018;4.202;2024-03-25T11:58:57;9.07;;;5.00;;
17864;SDS011;9058;52.018;4.202;2024-03-25T12:01:22;13.85;;;6.65;;
17864;SDS011;9058;52.018;4.202;2024-03-25T12:03:47;10.23;;;5.10;;
17864;SDS011;9058;52.018;4.202;2024-03-25T12:06:13;9.93;;;5.22;;
17864;SDS011;9058;52.018;4.202;2024-03-25T12:08:38;10.13;;;5.40;;
17864;SDS011;9058;52.018;4.202;2024-03-25T12:11:23;10.10;;;5.75;;
17864;SDS011;9058;52.018;4.202;2024-03-25T12:13:49;14.18;;;6.93;;
17864;SDS011;9058;52.018;4.202;2024-03-25T12:16:14;10.00;;;7.88;;
17864;SDS011;9058;52.018;4.202;2024-03-25T12:18:40;11.80;;;7.20;;
17864;SDS011;9058;52.018;4.202;2024-03-25T12:21:06;13.18;;;7.78;;
17864;SDS011;9058;52.018;4.202;2024-03-25T12:23:32;10.68;;;8.18;;
17864;SDS011;9058;52.018;4.202;2024-03-25T12:25:59;12.95;;;8.25;;
17864;SDS011;9058;52.018;4.202;2024-03-25T12:28:24;15.32;;;8.32;;
17864;SDS011;9058;52.018;4.202;2024-03-25T12:30:50;13.27;;;8.15;;
17864;SDS011;9058;52.018;4.202;2024-03-25T12:33:16;10.90;;;6.05;;
17864;SDS011;9058;52.018;4.202;2024-03-25T12:35:42;13.20;;;6.85;;
17864;SDS011;9058;52.018;4.202;2024-03-25T12:38:10;9.38;;;6.53;;
17864;SDS011;9058;52.018;4.202;2024-03-25T12:40:35;8.65;;;6.35;;
17864;SDS011;9058;52.018;4.202;2024-03-25T12:43:00;12.68;;;6.55;;
17864;SDS011;9058;52.018;4.202;2024-03-25T12:45:26;12.52;;;8.60;;
17864;SDS011;9058;52.018;4.202;2024-03-25T12:47:51;12.80;;;7.30;;
17864;SDS011;9058;52.018;4.202;2024-03-25T12:50:16;10.60;;;5.75;;
17864;SDS011;9058;52.018;4.202;2024-03-25T12:52:41;8.27;;;5.22;;
17864;SDS011;9058;52.018;4.202;2024-03-25T12:55:07;10.38;;;5.03;;
17864;SDS011;9058;52.018;4.202;2024-03-25T12:57:32;6.53;;;3.95;;
17864;SDS011;9058;52.018;4.202;2024-03-25T12:59:57;5.07;;;3.88;;
17864;SDS011;9058;52.018;4.202;2024-03-25T13:02:23;6.78;;;4.47;;
17864;SDS011;9058;52.018;4.202;2024-03-25T13:04:48;7.38;;;5.20;;
17864;SDS011;9058;52.018;4.202;2024-03-25T13:07:13;7.80;;;4.90;;
17864;SDS011;9058;52.018;4.202;2024-03-25T13:09:39;9.70;;;6.10;;
17864;SDS011;9058;52.018;4.202;2024-03-25T13:12:04;8.40;;;5.32;;
17864;SDS011;9058;52.018;4.202;2024-03-25T13:17:32;9.48;;;5.60;;
17864;SDS011;9058;52.018;4.202;2024-03-25T13:19:58;7.88;;;4.88;;
17864;SDS011;9058;52.018;4.202;2024-03-25T13:22:23;7.15;;;4.35;;
17864;SDS011;9058;52.018;4.202;2024-03-25T13:24:49;7.50;;;4.85;;
17864;SDS011;9058;52.018;4.202;2024-03-25T13:27:15;8.07;;;4.57;;
17864;SDS011;9058;52.018;4.202;2024-03-25T13:29:40;7.35;;;4.75;;
17864;SDS011;9058;52.018;4.202;2024-03-25T13:32:05;8.20;;;4.75;;
17864;SDS011;9058;52.018;4.202;2024-03-25T13:34:31;9.40;;;5.55;;
17864;SDS011;9058;52.018;4.202;2024-03-25T13:36:56;6.97;;;4.63;;
17864;SDS011;9058;52.018;4.202;2024-03-25T13:39:21;5.15;;;4.10;;
17864;SDS011;9058;52.018;4.202;2024-03-25T13:41:47;7.68;;;5.00;;
17864;SDS011;9058;52.018;4.202;2024-03-25T13:44:13;9.77;;;4.65;;
17864;SDS011;9058;52.018;4.202;2024-03-25T13:46:38;7.60;;;4.10;;
17864;SDS011;9058;52.018;4.202;2024-03-25T13:49:04;9.63;;;5.10;;
17864;SDS011;9058;52.018;4.202;2024-03-25T13:51:30;8.13;;;4.57;;
17864;SDS011;9058;52.018;4.202;2024-03-25T13:53:55;9.55;;;4.25;;
17864;SDS011;9058;52.018;4.202;2024-03-25T13:56:20;7.82;;;4.50;;
17864;SDS011;9058;52.018;4.202;2024-03-25T13:58:45;6.57;;;3.88;;
17864;SDS011;9058;52.018;4.202;2024-03-25T14:01:11;8.05;;;4.10;;
17864;SDS011;9058;52.018;4.202;2024-03-25T14:03:36;6.70;;;3.90;;
17864;SDS011;9058;52.018;4.202;2024-03-25T14:06:01;6.03;;;3.90;;
17864;SDS011;9058;52.018;4.202;2024-03-25T14:08:26;6.25;;;3.78;;
17864;SDS011;9058;52.018;4.202;2024-03-25T14:10:58;9.52;;;4.30;;
17864;SDS011;9058;52.018;4.202;2024-03-25T14:13:30;6.50;;;3.88;;
17864;SDS011;9058;52.018;4.202;2024-03-25T14:15:55;6.05;;;3.28;;
17864;SDS011;9058;52.018;4.202;2024-03-25T14:18:22;7.97;;;3.65;;
17864;SDS011;9058;52.018;4.202;2024-03-25T14:20:47;8.93;;;3.78;;
17864;SDS011;9058;52.018;4.202;2024-03-25T14:23:12;5.85;;;3.30;;
17864;SDS011;9058;52.018;4.202;2024-03-25T14:25:39;6.18;;;3.67;;
17864;SDS011;9058;52.018;4.202;2024-03-25T14:28:05;5.60;;;3.40;;
17864;SDS011;9058;52.018;4.202;2024-03-25T14:30:30;7.45;;;3.80;;
17864;SDS011;9058;52.018;4.202;2024-03-25T14:32:55;6.75;;;4.20;;
17864;SDS011;9058;52.018;4.202;2024-03-25T14:35:21;9.82;;;4.00;;